createdAt,value
2022-08-11T00:00:02.637Z,17.20
2022-08-11T00:01:02.699Z,17.20
2022-08-11T00:02:02.817Z,17.10
2022-08-11T00:03:02.768Z,17.20
2022-08-11T00:04:02.721Z,17.10
2022-08-11T00:05:02.701Z,17.10
2022-08-11T00:06:02.709Z,17.10
2022-08-11T00:07:02.805Z,17.10
2022-08-11T00:08:02.873Z,17.00
2022-08-11T00:09:02.932Z,17.00
2022-08-11T00:10:03.375Z,17.00
2022-08-11T00:11:03.798Z,17.00
2022-08-11T00:12:02.770Z,17.00
2022-08-11T00:13:02.842Z,17.00
2022-08-11T00:14:02.861Z,17.00
2022-08-11T00:15:02.806Z,16.90
2022-08-11T00:16:02.786Z,16.90
2022-08-11T00:17:02.971Z,16.90
2022-08-11T00:18:03.020Z,16.90
2022-08-11T00:19:02.951Z,16.90
2022-08-11T00:20:11.279Z,16.90
2022-08-11T00:21:02.912Z,16.90
2022-08-11T00:22:04.733Z,16.80
2022-08-11T00:23:02.956Z,16.80
2022-08-11T00:24:04.007Z,16.80
2022-08-11T00:25:03.063Z,16.80
2022-08-11T00:26:02.938Z,16.70
2022-08-11T00:27:03.079Z,16.70
2022-08-11T00:28:02.805Z,16.70
2022-08-11T00:29:02.940Z,16.70
2022-08-11T00:30:03.363Z,16.70
2022-08-11T00:31:04.331Z,16.70
2022-08-11T00:32:03.494Z,16.70
2022-08-11T00:33:03.500Z,16.70
2022-08-11T00:34:03.543Z,16.60
2022-08-11T00:35:50.575Z,16.60
2022-08-11T00:36:03.300Z,16.60
2022-08-11T00:37:04.854Z,16.60
2022-08-11T00:38:02.890Z,16.60
2022-08-11T00:39:02.937Z,16.60
2022-08-11T00:40:02.927Z,16.60
2022-08-11T00:41:03.069Z,16.60
2022-08-11T00:42:03.052Z,16.60
2022-08-11T00:43:03.085Z,16.50
2022-08-11T00:44:03.072Z,16.50
2022-08-11T00:45:03.026Z,16.50
2022-08-11T00:46:03.060Z,16.50
2022-08-11T00:47:03.056Z,16.50
2022-08-11T00:48:03.190Z,16.50
2022-08-11T00:49:02.698Z,16.40
2022-08-11T00:50:02.748Z,16.40
2022-08-11T00:51:03.092Z,16.40
2022-08-11T00:52:05.286Z,16.40
2022-08-11T00:53:02.946Z,16.40
2022-08-11T00:54:03.027Z,16.30
2022-08-11T00:55:02.986Z,16.30
2022-08-11T00:56:03.044Z,16.30
2022-08-11T00:57:03.050Z,16.30
2022-08-11T00:58:03.412Z,16.20
2022-08-11T00:59:03.498Z,16.20
2022-08-11T01:00:03.683Z,16.20
2022-08-11T01:01:03.518Z,16.20
2022-08-11T01:02:03.501Z,16.10
2022-08-11T01:03:03.648Z,16.10
2022-08-11T01:04:02.718Z,16.10
2022-08-11T01:05:02.660Z,16.10
2022-08-11T01:06:02.947Z,16.00
2022-08-11T01:07:02.926Z,16.00
2022-08-11T01:08:03.570Z,16.00
2022-08-11T01:09:02.832Z,16.00
2022-08-11T01:10:07.075Z,16.00
2022-08-11T01:11:02.904Z,15.90
2022-08-11T01:12:02.806Z,15.90
2022-08-11T01:13:02.906Z,15.90
2022-08-11T01:14:02.843Z,15.90
2022-08-11T01:15:02.850Z,15.90
2022-08-11T01:16:02.835Z,15.90
2022-08-11T01:17:02.910Z,15.90
2022-08-11T01:18:02.976Z,15.90
2022-08-11T01:20:04.266Z,15.80
2022-08-11T01:21:02.970Z,15.80
2022-08-11T01:22:02.986Z,15.80
2022-08-11T01:23:03.014Z,15.80
2022-08-11T01:24:02.963Z,15.80
2022-08-11T01:25:03.132Z,15.80
2022-08-11T01:26:03.072Z,15.80
2022-08-11T01:27:03.114Z,15.80
2022-08-11T01:28:03.390Z,15.80
2022-08-11T01:29:02.625Z,15.80
2022-08-11T01:30:02.658Z,15.80
2022-08-11T01:31:02.759Z,15.80
2022-08-11T01:32:02.672Z,15.80
2022-08-11T01:33:03.238Z,15.80
2022-08-11T01:34:03.269Z,15.80
2022-08-11T01:35:03.400Z,15.80
2022-08-11T01:36:03.348Z,15.70
2022-08-11T01:37:03.286Z,15.70
2022-08-11T01:38:03.285Z,15.70
2022-08-11T01:39:03.305Z,15.70
2022-08-11T01:40:03.314Z,15.70
2022-08-11T01:41:03.338Z,15.60
2022-08-11T01:42:03.257Z,15.60
2022-08-11T01:43:03.420Z,15.60
2022-08-11T01:44:03.467Z,15.60
2022-08-11T01:45:03.524Z,15.60
2022-08-11T01:46:03.556Z,15.60
2022-08-11T01:47:03.560Z,15.50
2022-08-11T01:48:03.828Z,15.50
2022-08-11T01:49:29.201Z,15.50
2022-08-11T01:50:09.170Z,15.50
2022-08-11T01:51:02.737Z,15.50
2022-08-11T01:52:02.689Z,15.50
2022-08-11T01:53:02.759Z,15.50
2022-08-11T01:54:02.625Z,15.50
2022-08-11T01:55:02.656Z,15.40
2022-08-11T01:56:02.709Z,15.40
2022-08-11T01:57:02.595Z,15.40
2022-08-11T01:58:02.774Z,15.40
2022-08-11T01:59:02.658Z,15.40
2022-08-11T02:00:02.798Z,15.40
2022-08-11T02:01:02.867Z,15.40
2022-08-11T02:02:02.867Z,15.40
2022-08-11T02:03:02.810Z,15.40
2022-08-11T02:04:02.831Z,15.40
2022-08-11T02:05:02.824Z,15.30
2022-08-11T02:06:02.903Z,15.30
2022-08-11T02:07:02.885Z,15.30
2022-08-11T02:08:03.170Z,15.30
2022-08-11T02:09:03.083Z,15.30
2022-08-11T02:10:03.188Z,15.30
2022-08-11T02:11:04.649Z,15.30
2022-08-11T02:12:03.178Z,15.30
2022-08-11T02:13:03.216Z,15.30
2022-08-11T02:14:03.239Z,15.30
2022-08-11T02:15:04.893Z,15.30
2022-08-11T02:16:03.272Z,15.30
2022-08-11T02:17:03.258Z,15.30
2022-08-11T02:18:02.933Z,15.30
2022-08-11T02:19:02.844Z,15.20
2022-08-11T02:20:02.947Z,15.20
2022-08-11T02:21:02.942Z,15.20
2022-08-11T02:22:03.043Z,15.20
2022-08-11T02:23:03.314Z,15.20
2022-08-11T02:24:04.735Z,15.20
2022-08-11T02:25:03.444Z,15.20
2022-08-11T02:26:03.592Z,15.20
2022-08-11T02:27:03.609Z,15.20
2022-08-11T02:28:02.674Z,15.20
2022-08-11T02:29:02.664Z,15.20
2022-08-11T02:30:02.625Z,15.20
2022-08-11T02:31:02.638Z,15.20
2022-08-11T02:32:08.401Z,15.20
2022-08-11T02:33:02.855Z,15.10
2022-08-11T02:34:02.865Z,15.10
2022-08-11T02:35:03.006Z,15.10
2022-08-11T02:36:02.982Z,15.10
2022-08-11T02:37:02.993Z,15.10
2022-08-11T02:38:03.001Z,15.00
2022-08-11T02:39:03.053Z,15.00
2022-08-11T02:40:03.201Z,15.00
2022-08-11T02:41:03.278Z,15.00
2022-08-11T02:42:03.207Z,15.00
2022-08-11T02:43:03.370Z,15.00
2022-08-11T02:44:03.346Z,15.00
2022-08-11T02:45:03.354Z,15.00
2022-08-11T02:46:03.589Z,15.00
2022-08-11T02:47:03.654Z,15.00
2022-08-11T02:48:02.761Z,15.00
2022-08-11T02:49:02.649Z,15.00
2022-08-11T02:50:07.080Z,14.90
2022-08-11T02:51:02.741Z,14.90
2022-08-11T02:52:02.778Z,14.90
2022-08-11T02:53:02.850Z,14.90
2022-08-11T02:54:02.877Z,14.90
2022-08-11T02:55:03.166Z,14.90
2022-08-11T02:56:03.249Z,14.90
2022-08-11T02:57:02.783Z,14.80
2022-08-11T02:58:02.805Z,14.80
2022-08-11T02:59:02.824Z,14.80
2022-08-11T03:00:03.372Z,14.80
2022-08-11T03:01:03.464Z,14.80
2022-08-11T03:02:05.040Z,14.80
2022-08-11T03:03:02.906Z,14.80
2022-08-11T03:04:03.018Z,14.80
2022-08-11T03:05:02.901Z,14.70
2022-08-11T03:06:02.907Z,14.70
2022-08-11T03:07:02.934Z,14.70
2022-08-11T03:08:02.994Z,14.70
2022-08-11T03:09:02.973Z,14.70
2022-08-11T03:10:02.929Z,14.70
2022-08-11T03:11:02.983Z,14.70
2022-08-11T03:12:03.076Z,14.70
2022-08-11T03:13:03.116Z,14.70
2022-08-11T03:14:03.090Z,14.60
2022-08-11T03:15:03.011Z,14.60
2022-08-11T03:16:02.982Z,14.60
2022-08-11T03:17:02.927Z,14.60
2022-08-11T03:18:03.068Z,14.60
2022-08-11T03:19:03.074Z,14.60
2022-08-11T03:20:03.106Z,14.60
2022-08-11T03:21:03.373Z,14.60
2022-08-11T03:23:03.732Z,14.60
2022-08-11T03:24:03.560Z,14.60
2022-08-11T03:25:03.549Z,14.60
2022-08-11T03:26:03.545Z,14.50
2022-08-11T03:27:03.517Z,14.50
2022-08-11T03:28:02.853Z,14.50
2022-08-11T03:29:02.591Z,14.50
2022-08-11T03:30:02.818Z,14.50
2022-08-11T03:31:02.784Z,14.40
2022-08-11T03:32:02.842Z,14.40
2022-08-11T03:33:02.938Z,14.40
2022-08-11T03:34:06.504Z,14.40
2022-08-11T03:35:03.133Z,14.40
2022-08-11T03:36:03.070Z,14.40
2022-08-11T03:37:15.768Z,14.40
2022-08-11T03:38:03.285Z,14.40
2022-08-11T03:39:03.362Z,14.40
2022-08-11T03:40:03.326Z,14.30
2022-08-11T03:41:03.242Z,14.30
2022-08-11T03:42:06.037Z,14.30
2022-08-11T03:43:03.221Z,14.30
2022-08-11T03:44:03.197Z,14.30
2022-08-11T03:45:03.162Z,14.40
2022-08-11T03:46:03.234Z,14.30
2022-08-11T03:47:03.293Z,14.40
2022-08-11T03:48:03.244Z,14.40
2022-08-11T03:49:03.320Z,14.30
2022-08-11T03:50:03.223Z,14.30
2022-08-11T03:51:03.325Z,14.30
2022-08-11T03:52:03.167Z,14.30
2022-08-11T03:53:03.170Z,14.30
2022-08-11T03:54:03.110Z,14.30
2022-08-11T03:55:03.233Z,14.30
2022-08-11T03:56:03.232Z,14.30
2022-08-11T03:57:03.217Z,14.30
2022-08-11T03:58:03.205Z,14.30
2022-08-11T03:59:03.324Z,14.30
2022-08-11T04:00:03.196Z,14.30
2022-08-11T04:01:03.156Z,14.30
2022-08-11T04:02:03.186Z,14.30
2022-08-11T04:03:03.213Z,14.30
2022-08-11T04:04:03.229Z,14.30
2022-08-11T04:05:03.227Z,14.20
2022-08-11T04:06:03.295Z,14.30
2022-08-11T04:07:03.279Z,14.20
2022-08-11T04:08:03.248Z,14.20
2022-08-11T04:09:03.261Z,14.20
2022-08-11T04:10:03.228Z,14.20
2022-08-11T04:11:03.262Z,14.20
2022-08-11T04:12:03.396Z,14.20
2022-08-11T04:13:03.433Z,14.20
2022-08-11T04:14:03.470Z,14.20
2022-08-11T04:15:03.411Z,14.20
2022-08-11T04:16:11.196Z,14.20
2022-08-11T04:17:03.440Z,14.20
2022-08-11T04:18:03.618Z,14.20
2022-08-11T04:19:03.622Z,14.20
2022-08-11T04:20:02.761Z,14.20
2022-08-11T04:21:02.664Z,14.20
2022-08-11T04:22:02.633Z,14.20
2022-08-11T04:23:02.812Z,14.20
2022-08-11T04:24:13.532Z,14.20
2022-08-11T04:25:03.437Z,14.20
2022-08-11T04:26:03.568Z,14.20
2022-08-11T04:27:04.954Z,14.20
2022-08-11T04:28:02.640Z,14.20
2022-08-11T04:29:03.742Z,14.20
2022-08-11T04:30:04.176Z,14.20
2022-08-11T04:31:02.795Z,14.20
2022-08-11T04:32:02.904Z,14.30
2022-08-11T04:33:02.996Z,14.30
2022-08-11T04:34:03.064Z,14.30
2022-08-11T04:35:03.216Z,14.30
2022-08-11T04:36:03.161Z,14.30
2022-08-11T04:37:03.266Z,14.30
2022-08-11T04:38:03.189Z,14.30
2022-08-11T04:39:03.292Z,14.40
2022-08-11T04:40:03.430Z,14.40
2022-08-11T04:41:03.422Z,14.40
2022-08-11T04:42:03.408Z,14.50
2022-08-11T04:43:03.348Z,14.50
2022-08-11T04:44:06.481Z,14.50
2022-08-11T04:45:03.454Z,14.60
2022-08-11T04:46:03.540Z,14.70
2022-08-11T04:47:03.515Z,14.70
2022-08-11T04:48:04.749Z,14.80
2022-08-11T04:49:03.683Z,14.90
2022-08-11T04:50:03.700Z,15.00
2022-08-11T04:51:08.719Z,15.10
2022-08-11T04:52:02.654Z,15.30
2022-08-11T04:53:02.733Z,15.40
2022-08-11T04:54:02.801Z,15.50
2022-08-11T04:55:02.921Z,15.70
2022-08-11T04:56:02.926Z,15.90
2022-08-11T04:57:03.010Z,16.00
2022-08-11T04:58:03.019Z,16.20
2022-08-11T04:59:02.931Z,16.40
2022-08-11T05:00:03.159Z,16.60
2022-08-11T05:01:03.068Z,16.80
2022-08-11T05:02:03.287Z,17.00
2022-08-11T05:03:03.189Z,17.10
2022-08-11T05:04:03.302Z,17.30
2022-08-11T05:05:03.448Z,17.50
2022-08-11T05:06:03.431Z,17.70
2022-08-11T05:07:03.462Z,17.90
2022-08-11T05:08:03.610Z,18.00
2022-08-11T05:09:03.570Z,18.20
2022-08-11T05:10:03.622Z,18.40
2022-08-11T05:11:02.631Z,18.50
2022-08-11T05:12:02.809Z,18.70
2022-08-11T05:13:02.793Z,18.80
2022-08-11T05:14:02.945Z,18.90
2022-08-11T05:15:03.067Z,19.00
2022-08-11T05:16:03.066Z,19.10
2022-08-11T05:17:03.150Z,19.30
2022-08-11T05:18:03.241Z,19.40
2022-08-11T05:19:03.227Z,19.50
2022-08-11T05:20:03.256Z,19.70
2022-08-11T05:21:05.073Z,19.80
2022-08-11T05:22:03.369Z,19.90
2022-08-11T05:23:03.447Z,20.00
2022-08-11T05:24:03.479Z,20.20
2022-08-11T05:25:03.665Z,20.30
2022-08-11T05:26:09.330Z,20.40
2022-08-11T05:27:02.756Z,20.50
2022-08-11T05:28:02.777Z,20.70
2022-08-11T05:29:19.236Z,20.70
2022-08-11T05:30:02.983Z,20.80
2022-08-11T05:31:02.925Z,20.90
2022-08-11T05:32:02.956Z,21.00
2022-08-11T05:33:03.557Z,21.10
2022-08-11T05:34:02.706Z,21.30
2022-08-11T05:35:02.807Z,21.40
2022-08-11T05:36:03.384Z,21.50
2022-08-11T05:37:24.120Z,21.60
2022-08-11T05:38:02.927Z,21.70
2022-08-11T05:39:02.941Z,21.80
2022-08-11T05:40:03.045Z,21.90
2022-08-11T05:41:02.974Z,22.00
2022-08-11T05:42:02.967Z,22.10
2022-08-11T05:43:03.089Z,22.20
2022-08-11T05:44:21.278Z,22.30
2022-08-11T05:45:03.193Z,22.30
2022-08-11T05:46:05.564Z,22.40
2022-08-11T05:47:03.324Z,22.50
2022-08-11T05:48:03.302Z,22.50
2022-08-11T05:49:03.361Z,22.60
2022-08-11T05:50:03.343Z,22.70
2022-08-11T05:51:03.384Z,22.80
2022-08-11T05:52:05.149Z,22.90
2022-08-11T05:53:03.466Z,23.00
2022-08-11T05:54:03.524Z,23.10
2022-08-11T05:55:06.198Z,23.10
2022-08-11T05:56:03.669Z,23.20
2022-08-11T05:57:02.790Z,23.30
2022-08-11T05:58:02.953Z,23.40
2022-08-11T05:59:02.961Z,23.50
2022-08-11T06:00:03.067Z,23.60
2022-08-11T06:01:03.269Z,23.60
2022-08-11T06:02:03.269Z,23.70
2022-08-11T06:03:03.192Z,23.70
2022-08-11T06:04:03.170Z,23.80
2022-08-11T06:05:03.250Z,23.90
2022-08-11T06:06:03.366Z,23.90
2022-08-11T06:07:03.337Z,24.00
2022-08-11T06:08:03.453Z,24.00
2022-08-11T06:09:03.499Z,24.10
2022-08-11T06:10:03.518Z,24.10
2022-08-11T06:11:03.641Z,24.20
2022-08-11T06:12:03.550Z,24.20
2022-08-11T06:13:02.634Z,24.30
2022-08-11T06:14:02.719Z,24.30
2022-08-11T06:15:02.727Z,24.40
2022-08-11T06:16:06.786Z,24.40
2022-08-11T06:17:02.711Z,24.50
2022-08-11T06:18:02.730Z,24.60
2022-08-11T06:19:02.946Z,24.60
2022-08-11T06:20:06.102Z,24.70
2022-08-11T06:21:02.874Z,24.70
2022-08-11T06:22:02.950Z,24.80
2022-08-11T06:23:03.231Z,24.80
2022-08-11T06:24:03.209Z,24.90
2022-08-11T06:25:03.198Z,24.90
2022-08-11T06:26:03.176Z,25.00
2022-08-11T06:27:13.303Z,25.10
2022-08-11T06:28:03.419Z,25.10
2022-08-11T06:29:03.370Z,25.10
2022-08-11T06:30:03.403Z,25.20
2022-08-11T06:31:03.570Z,25.30
2022-08-11T06:32:03.565Z,25.30
2022-08-11T06:33:02.629Z,25.40
2022-08-11T06:34:02.638Z,25.40
2022-08-11T06:35:03.276Z,25.50
2022-08-11T06:36:03.004Z,25.50
2022-08-11T06:37:03.011Z,25.60
2022-08-11T06:38:03.151Z,25.60
2022-08-11T06:39:03.342Z,25.70
2022-08-11T06:40:03.376Z,25.70
2022-08-11T06:41:03.499Z,25.80
2022-08-11T06:42:03.504Z,25.80
2022-08-11T06:43:03.490Z,25.80
2022-08-11T06:44:05.387Z,25.90
2022-08-11T06:45:02.704Z,25.90
2022-08-11T06:46:02.780Z,26.00
2022-08-11T06:47:02.722Z,26.00
2022-08-11T06:48:02.801Z,26.00
2022-08-11T06:49:02.817Z,26.00
2022-08-11T06:50:02.794Z,26.10
2022-08-11T06:51:03.015Z,26.20
2022-08-11T06:52:02.976Z,26.20
2022-08-11T06:53:03.172Z,26.20
2022-08-11T06:54:05.338Z,26.20
2022-08-11T06:55:03.157Z,26.20
2022-08-11T06:56:03.247Z,26.30
2022-08-11T06:57:28.135Z,26.30
2022-08-11T06:58:03.272Z,26.30
2022-08-11T06:59:03.203Z,26.40
2022-08-11T07:00:03.341Z,26.40
2022-08-11T07:01:03.353Z,26.40
2022-08-11T07:02:03.489Z,26.40
2022-08-11T07:03:03.388Z,26.50
2022-08-11T07:04:03.609Z,26.50
2022-08-11T07:05:03.600Z,26.50
2022-08-11T07:06:02.710Z,26.50
2022-08-11T07:07:02.791Z,26.50
2022-08-11T07:08:33.008Z,26.50
2022-08-11T07:09:02.890Z,26.50
2022-08-11T07:10:02.878Z,26.50
2022-08-11T07:11:02.920Z,26.60
2022-08-11T07:12:02.896Z,26.60
2022-08-11T07:13:02.918Z,26.60
2022-08-11T07:14:02.947Z,26.60
2022-08-11T07:15:03.563Z,26.60
2022-08-11T07:16:09.184Z,26.60
2022-08-11T07:17:02.726Z,26.60
2022-08-11T07:18:02.733Z,26.50
2022-08-11T07:19:02.705Z,26.60
2022-08-11T07:20:02.808Z,26.60
2022-08-11T07:21:02.806Z,26.60
2022-08-11T07:22:03.889Z,26.60
2022-08-11T07:23:02.996Z,26.50
2022-08-11T07:24:03.110Z,26.60
2022-08-11T07:25:03.623Z,26.60
2022-08-11T07:26:03.355Z,26.60
2022-08-11T07:27:03.299Z,26.60
2022-08-11T07:28:03.470Z,26.60
2022-08-11T07:29:03.529Z,26.70
2022-08-11T07:30:03.534Z,26.70
2022-08-11T07:31:02.641Z,26.70
2022-08-11T07:32:02.683Z,26.80
2022-08-11T07:33:02.823Z,26.90
2022-08-11T07:34:06.304Z,26.90
2022-08-11T07:35:02.771Z,26.90
2022-08-11T07:36:02.813Z,27.00
2022-08-11T07:37:02.974Z,27.00
2022-08-11T07:38:04.880Z,27.00
2022-08-11T07:39:03.154Z,27.00
2022-08-11T07:40:03.073Z,27.10
2022-08-11T07:41:03.173Z,27.10
2022-08-11T07:42:03.107Z,27.20
2022-08-11T07:43:03.240Z,27.20
2022-08-11T07:44:03.280Z,27.20
2022-08-11T07:45:03.191Z,27.30
2022-08-11T07:46:03.388Z,27.30
2022-08-11T07:47:03.403Z,27.30
2022-08-11T07:48:03.362Z,27.40
2022-08-11T07:49:03.531Z,27.50
2022-08-11T07:50:03.530Z,27.50
2022-08-11T07:51:03.537Z,27.50
2022-08-11T07:52:03.683Z,27.60
2022-08-11T07:53:03.491Z,27.60
2022-08-11T07:54:07.818Z,27.70
2022-08-11T07:55:03.559Z,27.70
2022-08-11T07:56:03.595Z,27.70
2022-08-11T07:57:07.659Z,27.80
2022-08-11T07:58:14.447Z,27.70
2022-08-11T07:59:05.278Z,27.80
2022-08-11T08:00:04.433Z,27.80
2022-08-11T08:01:03.087Z,27.80
2022-08-11T08:02:03.007Z,27.80
2022-08-11T08:03:03.559Z,27.90
2022-08-11T08:04:03.699Z,27.90
2022-08-11T08:05:03.595Z,27.90
2022-08-11T08:06:02.629Z,28.00
2022-08-11T08:07:02.919Z,28.00
2022-08-11T08:08:02.967Z,28.00
2022-08-11T08:09:03.021Z,28.00
2022-08-11T08:10:03.051Z,28.10
2022-08-11T08:11:03.042Z,28.10
2022-08-11T08:12:03.085Z,28.10
2022-08-11T08:13:03.215Z,28.10
2022-08-11T08:14:03.102Z,28.20
2022-08-11T08:15:03.170Z,28.20
2022-08-11T08:16:03.091Z,28.20
2022-08-11T08:17:03.338Z,28.20
2022-08-11T08:18:08.919Z,28.20
2022-08-11T08:19:03.264Z,28.20
2022-08-11T08:20:03.330Z,28.20
2022-08-11T08:21:03.381Z,28.20
2022-08-11T08:22:05.105Z,28.20
2022-08-11T08:23:03.584Z,28.20
2022-08-11T08:24:03.589Z,28.20
2022-08-11T08:25:03.572Z,28.20
2022-08-11T08:26:03.575Z,28.10
2022-08-11T08:27:03.479Z,28.10
2022-08-11T08:28:02.631Z,28.10
2022-08-11T08:29:02.741Z,28.10
2022-08-11T08:30:02.807Z,28.10
2022-08-11T08:31:02.890Z,28.10
2022-08-11T08:32:02.871Z,28.10
2022-08-11T08:33:03.279Z,28.10
2022-08-11T08:34:03.217Z,28.10
2022-08-11T08:35:03.429Z,28.10
2022-08-11T08:36:03.325Z,28.10
2022-08-11T08:37:03.436Z,28.00
2022-08-11T08:38:03.305Z,28.00
2022-08-11T08:39:03.505Z,28.00
2022-08-11T08:40:03.390Z,28.00
2022-08-11T08:41:03.573Z,28.00
2022-08-11T08:42:03.649Z,28.00
2022-08-11T08:43:03.664Z,28.00
2022-08-11T08:44:27.584Z,28.00
2022-08-11T08:45:02.677Z,28.00
2022-08-11T08:46:02.846Z,27.90
2022-08-11T08:47:02.845Z,27.90
2022-08-11T08:48:02.897Z,27.80
2022-08-11T08:49:02.983Z,27.80
2022-08-11T08:50:02.935Z,27.80
2022-08-11T08:51:02.975Z,27.80
2022-08-11T08:52:20.572Z,27.80
2022-08-11T08:53:03.036Z,27.80
2022-08-11T08:54:03.030Z,27.80
2022-08-11T08:55:03.083Z,27.80
2022-08-11T08:56:03.095Z,27.80
2022-08-11T08:57:03.173Z,27.80
2022-08-11T08:58:03.403Z,27.80
2022-08-11T08:59:02.763Z,27.70
2022-08-11T09:00:02.839Z,27.70
2022-08-11T09:01:02.934Z,27.70
2022-08-11T09:02:02.943Z,27.70
2022-08-11T09:03:17.467Z,27.70
2022-08-11T09:04:10.679Z,27.70
2022-08-11T09:05:03.220Z,27.70
2022-08-11T09:06:03.422Z,27.60
2022-08-11T09:07:03.374Z,27.60
2022-08-11T09:08:03.636Z,27.60
2022-08-11T09:09:03.635Z,27.60
2022-08-11T09:10:03.638Z,27.60
2022-08-11T09:11:02.637Z,27.60
2022-08-11T09:12:02.712Z,27.60
2022-08-11T09:13:02.879Z,27.60
2022-08-11T09:14:03.425Z,27.60
2022-08-11T09:15:02.963Z,27.60
2022-08-11T09:16:03.544Z,27.60
2022-08-11T09:17:03.560Z,27.60
2022-08-11T09:18:03.835Z,27.60
2022-08-11T09:19:03.664Z,27.60
2022-08-11T09:20:03.622Z,27.60
2022-08-11T09:21:02.680Z,27.60
2022-08-11T09:22:02.679Z,27.50
2022-08-11T09:23:41.603Z,27.50
2022-08-11T09:24:07.636Z,27.50
2022-08-11T09:25:02.791Z,27.50
2022-08-11T09:26:02.839Z,27.50
2022-08-11T09:27:02.793Z,27.50
2022-08-11T09:28:03.673Z,27.50
2022-08-11T09:29:03.267Z,27.50
2022-08-11T09:30:03.288Z,27.50
2022-08-11T09:31:02.729Z,27.50
2022-08-11T09:32:02.935Z,27.60
2022-08-11T09:33:02.838Z,27.60
2022-08-11T09:34:02.923Z,27.60
2022-08-11T09:35:03.110Z,27.60
2022-08-11T09:36:03.535Z,27.60
2022-08-11T09:37:03.585Z,27.60
2022-08-11T09:38:03.772Z,27.60
2022-08-11T09:39:02.805Z,27.60
2022-08-11T09:40:02.804Z,27.60
2022-08-11T09:41:02.787Z,27.60
2022-08-11T09:42:03.538Z,27.70
2022-08-11T09:43:02.880Z,27.70
2022-08-11T09:44:04.237Z,27.70
2022-08-11T09:45:02.807Z,27.70
2022-08-11T09:46:02.909Z,27.70
2022-08-11T09:47:02.822Z,27.80
2022-08-11T09:48:02.914Z,27.80
2022-08-11T09:49:02.901Z,27.80
2022-08-11T09:50:02.877Z,27.80
2022-08-11T09:51:02.931Z,27.80
2022-08-11T09:52:05.248Z,27.80
2022-08-11T09:53:35.445Z,27.80
2022-08-11T09:54:04.150Z,27.80
2022-08-11T09:55:03.461Z,27.80
2022-08-11T09:56:03.465Z,27.80
2022-08-11T09:57:05.414Z,27.80
2022-08-11T09:58:03.602Z,27.90
2022-08-11T09:59:03.521Z,27.90
2022-08-11T10:00:09.415Z,27.90
2022-08-11T10:01:02.704Z,27.90
2022-08-11T10:02:03.512Z,27.90
2022-08-11T10:03:02.732Z,27.90
2022-08-11T10:04:02.838Z,27.90
2022-08-11T10:05:02.766Z,27.90
2022-08-11T10:06:07.371Z,28.00
2022-08-11T10:07:03.413Z,28.00
2022-08-11T10:08:02.937Z,28.00
2022-08-11T10:09:02.981Z,28.00
2022-08-11T10:10:03.007Z,28.00
2022-08-11T10:11:03.270Z,28.00
2022-08-11T10:12:03.380Z,28.00
2022-08-11T10:13:03.371Z,28.00
2022-08-11T10:14:30.746Z,28.00
2022-08-11T10:15:03.519Z,28.00
2022-08-11T10:16:15.023Z,28.00
2022-08-11T10:17:02.722Z,28.00
2022-08-11T10:18:02.773Z,28.00
2022-08-11T10:19:02.838Z,28.00
2022-08-11T10:20:04.575Z,28.00
2022-08-11T10:21:02.933Z,28.00
2022-08-11T10:22:02.963Z,28.00
2022-08-11T10:23:02.994Z,28.00
2022-08-11T10:24:05.857Z,28.00
2022-08-11T10:25:03.066Z,27.90
2022-08-11T10:26:03.029Z,28.00
2022-08-11T10:27:03.127Z,28.00
2022-08-11T10:28:17.321Z,28.00
2022-08-11T10:29:12.876Z,27.90
2022-08-11T10:30:02.765Z,27.90
2022-08-11T10:31:02.757Z,27.90
2022-08-11T10:32:04.497Z,27.90
2022-08-11T10:33:03.055Z,27.90
2022-08-11T10:34:03.049Z,27.90
2022-08-11T10:35:03.029Z,27.90
2022-08-11T10:36:03.619Z,27.90
2022-08-11T10:37:03.600Z,27.90
2022-08-11T10:38:07.070Z,27.90
2022-08-11T10:39:03.634Z,27.90
2022-08-11T10:40:03.575Z,27.90
2022-08-11T10:41:02.694Z,27.90
2022-08-11T10:42:08.796Z,27.90
2022-08-11T10:43:02.990Z,27.90
2022-08-11T10:44:03.917Z,27.90
2022-08-11T10:45:02.902Z,28.00
2022-08-11T10:46:02.900Z,28.00
2022-08-11T10:47:02.982Z,28.00
2022-08-11T10:48:02.983Z,28.00
2022-08-11T10:49:03.066Z,28.00
2022-08-11T10:50:02.999Z,28.10
2022-08-11T10:51:03.010Z,28.10
2022-08-11T10:52:02.992Z,28.10
2022-08-11T10:53:03.224Z,28.10
2022-08-11T10:54:03.217Z,28.10
2022-08-11T10:55:03.648Z,28.10
2022-08-11T10:57:03.254Z,28.10
2022-08-11T10:58:04.079Z,28.20
2022-08-11T10:59:04.054Z,28.20
2022-08-11T11:00:03.603Z,28.20
2022-08-11T11:01:03.604Z,28.20
2022-08-11T11:02:03.630Z,28.30
2022-08-11T11:03:16.902Z,28.30
2022-08-11T11:04:02.915Z,28.30
2022-08-11T11:05:02.879Z,28.30
2022-08-11T11:06:13.166Z,28.40
2022-08-11T11:07:02.915Z,28.40
2022-08-11T11:08:03.006Z,28.40
2022-08-11T11:09:04.281Z,28.40
2022-08-11T11:10:02.894Z,28.40
2022-08-11T11:11:02.913Z,28.50
2022-08-11T11:12:02.931Z,28.50
2022-08-11T11:13:02.987Z,28.50
2022-08-11T11:14:03.662Z,28.50
2022-08-11T11:15:03.025Z,28.60
2022-08-11T11:16:03.058Z,28.60
2022-08-11T11:17:03.188Z,28.60
2022-08-11T11:18:03.235Z,28.60
2022-08-11T11:19:03.388Z,28.70
2022-08-11T11:20:03.367Z,28.60
2022-08-11T11:21:03.448Z,28.60
2022-08-11T11:22:03.427Z,28.60
2022-08-11T11:23:03.420Z,28.50
2022-08-11T11:24:03.478Z,28.50
2022-08-11T11:25:03.600Z,28.50
2022-08-11T11:26:03.543Z,28.50
2022-08-11T11:27:03.516Z,28.50
2022-08-11T11:28:03.502Z,28.50
2022-08-11T11:29:02.631Z,28.50
2022-08-11T11:30:03.134Z,28.50
2022-08-11T11:31:03.127Z,28.50
2022-08-11T11:32:03.219Z,28.60
2022-08-11T11:33:03.132Z,28.60
2022-08-11T11:34:07.067Z,28.60
2022-08-11T11:35:03.242Z,28.60
2022-08-11T11:36:03.265Z,28.60
2022-08-11T11:37:03.358Z,28.60
2022-08-11T11:38:04.632Z,28.70
2022-08-11T11:39:03.342Z,28.70
2022-08-11T11:40:03.339Z,28.70
2022-08-11T11:41:03.462Z,28.80
2022-08-11T11:42:03.600Z,28.80
2022-08-11T11:43:02.656Z,28.80
2022-08-11T11:44:02.788Z,28.70
2022-08-11T11:45:02.905Z,28.70
2022-08-11T11:46:03.007Z,28.60
2022-08-11T11:47:03.065Z,28.60
2022-08-11T11:48:03.204Z,28.60
2022-08-11T11:49:03.258Z,28.60
2022-08-11T11:50:03.321Z,28.60
2022-08-11T11:51:03.294Z,28.60
2022-08-11T11:52:03.347Z,28.60
2022-08-11T11:53:03.307Z,28.60
2022-08-11T11:54:03.426Z,28.60
2022-08-11T11:55:03.441Z,28.60
2022-08-11T11:56:03.406Z,28.60
2022-08-11T11:57:03.343Z,28.60
2022-08-11T11:58:03.531Z,28.60
2022-08-11T11:59:02.663Z,28.60
2022-08-11T12:00:02.800Z,28.60
2022-08-11T12:01:02.762Z,28.60
2022-08-11T12:02:07.450Z,28.60
2022-08-11T12:03:02.867Z,28.60
2022-08-11T12:04:02.854Z,28.60
2022-08-11T12:05:02.944Z,28.60
2022-08-11T12:06:03.025Z,28.60
2022-08-11T12:07:02.936Z,28.60
2022-08-11T12:08:05.263Z,28.60
2022-08-11T12:09:03.131Z,28.60
2022-08-11T12:10:03.236Z,28.60
2022-08-11T12:11:03.374Z,28.60
2022-08-11T12:12:03.314Z,28.60
2022-08-11T12:13:03.427Z,28.60
2022-08-11T12:14:03.462Z,28.60
2022-08-11T12:15:03.552Z,28.60
2022-08-11T12:16:04.571Z,28.60
2022-08-11T12:17:02.930Z,28.60
2022-08-11T12:18:02.885Z,28.60
2022-08-11T12:19:03.029Z,28.60
2022-08-11T12:20:03.033Z,28.60
2022-08-11T12:21:03.022Z,28.60
2022-08-11T12:22:03.065Z,28.60
2022-08-11T12:23:03.272Z,28.70
2022-08-11T12:24:04.519Z,28.70
2022-08-11T12:25:03.414Z,28.70
2022-08-11T12:26:25.645Z,28.70
2022-08-11T12:27:15.423Z,28.80
2022-08-11T12:28:03.544Z,28.80
2022-08-11T12:29:03.619Z,28.80
2022-08-11T12:30:02.731Z,28.80
2022-08-11T12:31:02.695Z,28.80
2022-08-11T12:32:02.796Z,28.80
2022-08-11T12:33:02.815Z,28.90
2022-08-11T12:34:02.870Z,28.90
2022-08-11T12:35:03.005Z,29.00
2022-08-11T12:36:03.055Z,29.00
2022-08-11T12:37:03.140Z,29.00
2022-08-11T12:38:09.440Z,29.10
2022-08-11T12:39:04.848Z,29.10
2022-08-11T12:40:13.103Z,29.20
2022-08-11T12:41:16.416Z,29.20
2022-08-11T12:42:02.944Z,29.20
2022-08-11T12:43:03.843Z,29.20
2022-08-11T12:44:04.448Z,29.20
2022-08-11T12:45:03.225Z,29.20
2022-08-11T12:46:03.161Z,29.10
2022-08-11T12:47:03.468Z,29.10
2022-08-11T12:48:07.920Z,29.10
2022-08-11T12:49:04.000Z,29.10
2022-08-11T12:50:03.640Z,29.00
2022-08-11T12:51:02.731Z,29.00
2022-08-11T12:52:14.317Z,28.90
2022-08-11T12:53:03.009Z,28.90
2022-08-11T12:54:03.273Z,28.90
2022-08-11T12:55:03.404Z,28.90